sensor_id;sensor_type;location;lat;lon;timestamp;P1;durP1;ratioP1;P2;durP2;ratioP2
73474;SDS011;61711;52.266;10.542;2022-11-06T00:00:41;5.88;;;3.78;;
73474;SDS011;61711;52.266;10.542;2022-11-06T00:03:07;8.38;;;4.00;;
73474;SDS011;61711;52.266;10.542;2022-11-06T00:05:33;8.82;;;4.00;;
73474;SDS011;61711;52.266;10.542;2022-11-06T00:08:26;7.38;;;3.80;;
73474;SDS011;61711;52.266;10.542;2022-11-06T00:10:52;8.15;;;4.05;;
73474;SDS011;61711;52.266;10.542;2022-11-06T00:13:18;6.93;;;3.90;;
73474;SDS011;61711;52.266;10.542;2022-11-06T00:15:44;6.35;;;3.88;;
73474;SDS011;61711;52.266;10.542;2022-11-06T00:18:10;7.60;;;3.78;;
73474;SDS011;61711;52.266;10.542;2022-11-06T00:20:36;6.55;;;3.78;;
73474;SDS011;61711;52.266;10.542;2022-11-06T00:23:02;6.03;;;3.70;;
73474;SDS011;61711;52.266;10.542;2022-11-06T00:25:28;7.75;;;3.50;;
73474;SDS011;61711;52.266;10.542;2022-11-06T00:27:54;6.15;;;3.70;;
73474;SDS011;61711;52.266;10.542;2022-11-06T00:30:20;6.65;;;3.88;;
73474;SDS011;61711;52.266;10.542;2022-11-06T00:32:46;6.57;;;3.75;;
73474;SDS011;61711;52.266;10.542;2022-11-06T00:35:12;7.60;;;4.18;;
73474;SDS011;61711;52.266;10.542;2022-11-06T00:37:38;10.80;;;4.38;;
73474;SDS011;61711;52.266;10.542;2022-11-06T00:40:04;9.20;;;4.07;;
73474;SDS011;61711;52.266;10.542;2022-11-06T00:42:31;9.02;;;4.75;;
73474;SDS011;61711;52.266;10.542;2022-11-06T00:44:57;7.75;;;4.22;;
73474;SDS011;61711;52.266;10.542;2022-11-06T00:47:23;9.65;;;4.07;;
73474;SDS011;61711;52.266;10.542;2022-11-06T00:49:49;6.38;;;3.95;;
73474;SDS011;61711;52.266;10.542;2022-11-06T00:52:15;7.80;;;4.20;;
73474;SDS011;61711;52.266;10.542;2022-11-06T00:54:42;10.25;;;4.53;;
73474;SDS011;61711;52.266;10.542;2022-11-06T00:57:08;8.32;;;4.22;;
73474;SDS011;61711;52.266;10.542;2022-11-06T00:59:34;8.70;;;4.10;;
73474;SDS011;61711;52.266;10.542;2022-11-06T01:02:00;6.25;;;3.92;;
73474;SDS011;61711;52.266;10.542;2022-11-06T01:04:26;8.20;;;3.80;;
73474;SDS011;61711;52.266;10.542;2022-11-06T01:06:53;6.72;;;4.05;;
73474;SDS011;61711;52.266;10.542;2022-11-06T01:09:21;5.93;;;3.63;;
73474;SDS011;61711;52.266;10.542;2022-11-06T01:11:49;7.28;;;3.60;;
73474;SDS011;61711;52.266;10.542;2022-11-06T01:14:16;6.50;;;3.80;;
73474;SDS011;61711;52.266;10.542;2022-11-06T01:16:42;7.40;;;3.65;;
73474;SDS011;61711;52.266;10.542;2022-11-06T01:19:09;8.63;;;3.67;;
73474;SDS011;61711;52.266;10.542;2022-11-06T01:21:37;5.13;;;3.58;;
73474;SDS011;61711;52.266;10.542;2022-11-06T01:24:09;6.15;;;3.55;;
73474;SDS011;61711;52.266;10.542;2022-11-06T01:26:36;7.03;;;3.53;;
73474;SDS011;61711;52.266;10.542;2022-11-06T01:29:02;7.93;;;3.60;;
73474;SDS011;61711;52.266;10.542;2022-11-06T01:31:29;5.15;;;3.80;;
73474;SDS011;61711;52.266;10.542;2022-11-06T01:33:56;6.00;;;3.70;;
73474;SDS011;61711;52.266;10.542;2022-11-06T01:36:23;5.40;;;3.60;;
73474;SDS011;61711;52.266;10.542;2022-11-06T01:38:49;8.10;;;3.60;;
73474;SDS011;61711;52.266;10.542;2022-11-06T01:41:19;7.13;;;3.85;;
73474;SDS011;61711;52.266;10.542;2022-11-06T01:43:56;5.70;;;3.50;;
73474;SDS011;61711;52.266;10.542;2022-11-06T01:46:23;7.95;;;3.83;;
73474;SDS011;61711;52.266;10.542;2022-11-06T01:48:53;5.80;;;3.90;;
73474;SDS011;61711;52.266;10.542;2022-11-06T01:51:20;10.35;;;4.10;;
73474;SDS011;61711;52.266;10.542;2022-11-06T01:53:47;8.40;;;4.55;;
73474;SDS011;61711;52.266;10.542;2022-11-06T01:56:13;6.28;;;3.50;;
73474;SDS011;61711;52.266;10.542;2022-11-06T01:58:40;5.43;;;3.60;;
73474;SDS011;61711;52.266;10.542;2022-11-06T02:01:07;6.97;;;4.13;;
73474;SDS011;61711;52.266;10.542;2022-11-06T02:03:35;9.77;;;4.05;;
73474;SDS011;61711;52.266;10.542;2022-11-06T02:06:01;5.28;;;3.80;;
73474;SDS011;61711;52.266;10.542;2022-11-06T02:08:28;6.90;;;4.13;;
73474;SDS011;61711;52.266;10.542;2022-11-06T02:10:55;9.95;;;4.00;;
73474;SDS011;61711;52.266;10.542;2022-11-06T02:16:12;7.85;;;4.10;;
73474;SDS011;61711;52.266;10.542;2022-11-06T02:27:09;7.80;;;4.35;;
73474;SDS011;61711;52.266;10.542;2022-11-06T02:29:42;7.50;;;4.32;;
73474;SDS011;61711;52.266;10.542;2022-11-06T02:32:11;7.63;;;4.47;;
73474;SDS011;61711;52.266;10.542;2022-11-06T02:34:38;9.00;;;4.45;;
73474;SDS011;61711;52.266;10.542;2022-11-06T02:37:07;7.78;;;4.60;;
73474;SDS011;61711;52.266;10.542;2022-11-06T02:39:35;6.28;;;3.97;;
73474;SDS011;61711;52.266;10.542;2022-11-06T02:42:03;7.25;;;4.15;;
73474;SDS011;61711;52.266;10.542;2022-11-06T02:44:30;7.40;;;4.30;;
73474;SDS011;61711;52.266;10.542;2022-11-06T02:47:00;7.60;;;4.18;;
73474;SDS011;61711;52.266;10.542;2022-11-06T02:51:59;9.88;;;4.65;;
73474;SDS011;61711;52.266;10.542;2022-11-06T02:54:28;7.30;;;4.50;;
73474;SDS011;61711;52.266;10.542;2022-11-06T02:56:56;6.90;;;4.40;;
73474;SDS011;61711;52.266;10.542;2022-11-06T02:59:48;8.93;;;4.78;;
73474;SDS011;61711;52.266;10.542;2022-11-06T03:02:13;12.00;;;5.78;;
73474;SDS011;61711;52.266;10.542;2022-11-06T03:04:43;10.25;;;5.20;;
73474;SDS011;61711;52.266;10.542;2022-11-06T03:07:25;12.80;;;6.05;;
73474;SDS011;61711;52.266;10.542;2022-11-06T03:09:53;11.13;;;5.88;;
73474;SDS011;61711;52.266;10.542;2022-11-06T03:12:24;8.82;;;5.60;;
73474;SDS011;61711;52.266;10.542;2022-11-06T03:14:56;10.88;;;5.40;;
73474;SDS011;61711;52.266;10.542;2022-11-06T03:17:28;12.52;;;5.63;;
73474;SDS011;61711;52.266;10.542;2022-11-06T03:22:34;13.27;;;5.78;;
73474;SDS011;61711;52.266;10.542;2022-11-06T03:25:24;7.13;;;4.57;;
73474;SDS011;61711;52.266;10.542;2022-11-06T03:30:17;11.60;;;4.72;;
73474;SDS011;61711;52.266;10.542;2022-11-06T03:37:59;11.77;;;6.80;;
73474;SDS011;61711;52.266;10.542;2022-11-06T03:40:27;15.00;;;6.72;;
73474;SDS011;61711;52.266;10.542;2022-11-06T03:42:55;10.55;;;5.60;;
73474;SDS011;61711;52.266;10.542;2022-11-06T03:45:22;8.50;;;5.03;;
73474;SDS011;61711;52.266;10.542;2022-11-06T03:47:51;10.52;;;5.28;;
73474;SDS011;61711;52.266;10.542;2022-11-06T03:50:24;10.32;;;4.93;;
73474;SDS011;61711;52.266;10.542;2022-11-06T03:52:55;7.30;;;4.57;;
73474;SDS011;61711;52.266;10.542;2022-11-06T03:55:26;9.90;;;4.93;;
73474;SDS011;61711;52.266;10.542;2022-11-06T03:58:05;9.13;;;4.60;;
73474;SDS011;61711;52.266;10.542;2022-11-06T04:00:33;8.27;;;4.63;;
73474;SDS011;61711;52.266;10.542;2022-11-06T04:03:02;9.88;;;4.38;;
73474;SDS011;61711;52.266;10.542;2022-11-06T04:05:41;8.90;;;4.25;;
73474;SDS011;61711;52.266;10.542;2022-11-06T04:08:08;8.07;;;4.20;;
73474;SDS011;61711;52.266;10.542;2022-11-06T04:10:56;9.55;;;4.07;;
73474;SDS011;61711;52.266;10.542;2022-11-06T04:13:42;8.02;;;4.50;;
73474;SDS011;61711;52.266;10.542;2022-11-06T04:16:24;9.27;;;4.75;;
73474;SDS011;61711;52.266;10.542;2022-11-06T04:18:51;8.05;;;4.38;;
73474;SDS011;61711;52.266;10.542;2022-11-06T04:32:24;8.20;;;4.70;;
73474;SDS011;61711;52.266;10.542;2022-11-06T04:35:01;9.38;;;4.78;;
73474;SDS011;61711;52.266;10.542;2022-11-06T04:45:19;12.15;;;4.82;;
73474;SDS011;61711;52.266;10.542;2022-11-06T04:47:46;9.73;;;4.32;;
73474;SDS011;61711;52.266;10.542;2022-11-06T04:50:12;8.90;;;4.95;;
73474;SDS011;61711;52.266;10.542;2022-11-06T04:52:39;9.27;;;4.95;;
73474;SDS011;61711;52.266;10.542;2022-11-06T04:55:05;8.48;;;4.70;;
73474;SDS011;61711;52.266;10.542;2022-11-06T04:57:31;8.52;;;4.50;;
73474;SDS011;61711;52.266;10.542;2022-11-06T04:59:58;8.88;;;4.80;;
73474;SDS011;61711;52.266;10.542;2022-11-06T05:02:24;7.30;;;4.32;;
73474;SDS011;61711;52.266;10.542;2022-11-06T05:04:50;10.57;;;4.97;;
73474;SDS011;61711;52.266;10.542;2022-11-06T05:07:16;9.52;;;5.00;;
73474;SDS011;61711;52.266;10.542;2022-11-06T05:09:42;9.80;;;4.88;;
73474;SDS011;61711;52.266;10.542;2022-11-06T05:12:09;7.80;;;4.43;;
73474;SDS011;61711;52.266;10.542;2022-11-06T05:14:35;8.50;;;4.60;;
73474;SDS011;61711;52.266;10.542;2022-11-06T05:17:01;10.88;;;4.70;;
73474;SDS011;61711;52.266;10.542;2022-11-06T05:19:27;6.32;;;4.22;;
73474;SDS011;61711;52.266;10.542;2022-11-06T05:21:53;9.25;;;4.60;;
73474;SDS011;61711;52.266;10.542;2022-11-06T05:24:38;9.32;;;4.50;;
73474;SDS011;61711;52.266;10.542;2022-11-06T05:27:04;10.30;;;4.70;;
73474;SDS011;61711;52.266;10.542;2022-11-06T05:29:30;8.70;;;4.18;;
73474;SDS011;61711;52.266;10.542;2022-11-06T05:31:56;7.85;;;4.13;;
73474;SDS011;61711;52.266;10.542;2022-11-06T05:34:22;8.52;;;4.65;;
73474;SDS011;61711;52.266;10.542;2022-11-06T05:36:48;9.25;;;4.43;;
73474;SDS011;61711;52.266;10.542;2022-11-06T05:39:14;9.55;;;5.00;;
73474;SDS011;61711;52.266;10.542;2022-11-06T05:41:40;12.57;;;4.90;;
73474;SDS011;61711;52.266;10.542;2022-11-06T05:44:06;10.82;;;4.82;;
73474;SDS011;61711;52.266;10.542;2022-11-06T05:46:32;9.10;;;4.88;;
73474;SDS011;61711;52.266;10.542;2022-11-06T05:48:58;9.43;;;4.57;;
73474;SDS011;61711;52.266;10.542;2022-11-06T05:51:24;10.50;;;4.40;;
73474;SDS011;61711;52.266;10.542;2022-11-06T05:53:50;11.18;;;4.80;;
73474;SDS011;61711;52.266;10.542;2022-11-06T05:56:16;8.95;;;4.63;;
73474;SDS011;61711;52.266;10.542;2022-11-06T05:58:42;9.77;;;4.60;;
73474;SDS011;61711;52.266;10.542;2022-11-06T06:01:08;8.95;;;4.63;;
73474;SDS011;61711;52.266;10.542;2022-11-06T06:03:35;10.40;;;4.80;;
73474;SDS011;61711;52.266;10.542;2022-11-06T06:06:01;8.60;;;4.50;;
73474;SDS011;61711;52.266;10.542;2022-11-06T06:08:27;8.60;;;4.55;;
73474;SDS011;61711;52.266;10.542;2022-11-06T06:10:53;11.98;;;4.10;;
73474;SDS011;61711;52.266;10.542;2022-11-06T06:13:19;7.78;;;4.63;;
73474;SDS011;61711;52.266;10.542;2022-11-06T06:15:45;8.68;;;4.80;;
73474;SDS011;61711;52.266;10.542;2022-11-06T06:18:11;9.27;;;4.45;;
73474;SDS011;61711;52.266;10.542;2022-11-06T06:20:37;8.52;;;4.85;;
73474;SDS011;61711;52.266;10.542;2022-11-06T06:23:03;8.25;;;4.50;;
73474;SDS011;61711;52.266;10.542;2022-11-06T06:25:30;9.70;;;4.30;;
73474;SDS011;61711;52.266;10.542;2022-11-06T06:27:56;8.23;;;4.00;;
73474;SDS011;61711;52.266;10.542;2022-11-06T06:30:22;7.60;;;4.50;;
73474;SDS011;61711;52.266;10.542;2022-11-06T06:32:49;7.90;;;4.20;;
73474;SDS011;61711;52.266;10.542;2022-11-06T06:35:15;10.80;;;4.28;;
73474;SDS011;61711;52.266;10.542;2022-11-06T06:37:42;6.65;;;3.85;;
73474;SDS011;61711;52.266;10.542;2022-11-06T06:40:08;8.63;;;4.53;;
73474;SDS011;61711;52.266;10.542;2022-11-06T06:42:34;7.38;;;4.00;;
73474;SDS011;61711;52.266;10.542;2022-11-06T06:45:03;10.70;;;4.05;;
73474;SDS011;61711;52.266;10.542;2022-11-06T06:47:32;9.85;;;4.38;;
73474;SDS011;61711;52.266;10.542;2022-11-06T06:49:58;7.97;;;3.83;;
73474;SDS011;61711;52.266;10.542;2022-11-06T06:52:24;9.93;;;4.60;;
73474;SDS011;61711;52.266;10.542;2022-11-06T06:54:50;9.27;;;3.80;;
73474;SDS011;61711;52.266;10.542;2022-11-06T06:57:16;6.68;;;4.13;;
73474;SDS011;61711;52.266;10.542;2022-11-06T06:59:42;11.43;;;4.10;;
73474;SDS011;61711;52.266;10.542;2022-11-06T07:02:08;7.40;;;3.97;;
73474;SDS011;61711;52.266;10.542;2022-11-06T07:04:34;8.45;;;4.20;;
73474;SDS011;61711;52.266;10.542;2022-11-06T07:07:00;9.52;;;4.18;;
73474;SDS011;61711;52.266;10.542;2022-11-06T07:09:28;7.10;;;3.90;;
73474;SDS011;61711;52.266;10.542;2022-11-06T07:11:55;8.35;;;3.72;;
73474;SDS011;61711;52.266;10.542;2022-11-06T07:14:21;10.07;;;4.65;;
73474;SDS011;61711;52.266;10.542;2022-11-06T07:16:47;7.60;;;3.72;;
73474;SDS011;61711;52.266;10.542;2022-11-06T07:19:13;7.90;;;3.88;;
73474;SDS011;61711;52.266;10.542;2022-11-06T07:21:42;10.02;;;4.43;;
73474;SDS011;61711;52.266;10.542;2022-11-06T07:24:08;7.72;;;3.58;;
73474;SDS011;61711;52.266;10.542;2022-11-06T07:26:34;6.68;;;4.00;;
73474;SDS011;61711;52.266;10.542;2022-11-06T07:29:00;7.78;;;3.72;;
73474;SDS011;61711;52.266;10.542;2022-11-06T07:31:26;10.82;;;4.10;;
73474;SDS011;61711;52.266;10.542;2022-11-06T07:33:53;8.00;;;4.00;;
73474;SDS011;61711;52.266;10.542;2022-11-06T07:36:19;7.22;;;3.95;;
73474;SDS011;61711;52.266;10.542;2022-11-06T07:38:45;8.18;;;3.72;;
73474;SDS011;61711;52.266;10.542;2022-11-06T07:41:12;11.45;;;3.78;;
73474;SDS011;61711;52.266;10.542;2022-11-06T07:43:38;7.18;;;3.92;;
73474;SDS011;61711;52.266;10.542;2022-11-06T07:46:06;6.07;;;3.67;;
73474;SDS011;61711;52.266;10.542;2022-11-06T07:48:32;9.23;;;3.80;;
73474;SDS011;61711;52.266;10.542;2022-11-06T07:51:00;9.07;;;3.85;;
73474;SDS011;61711;52.266;10.542;2022-11-06T07:53:26;7.35;;;4.03;;
73474;SDS011;61711;52.266;10.542;2022-11-06T07:55:53;5.95;;;3.35;;
73474;SDS011;61711;52.266;10.542;2022-11-06T07:58:20;5.63;;;3.40;;
73474;SDS011;61711;52.266;10.542;2022-11-06T08:00:46;7.57;;;3.78;;
73474;SDS011;61711;52.266;10.542;2022-11-06T08:03:12;9.77;;;4.10;;
73474;SDS011;61711;52.266;10.542;2022-11-06T08:05:38;6.57;;;3.67;;
73474;SDS011;61711;52.266;10.542;2022-11-06T08:08:04;9.43;;;3.92;;
73474;SDS011;61711;52.266;10.542;2022-11-06T08:10:30;10.13;;;3.90;;
73474;SDS011;61711;52.266;10.542;2022-11-06T08:13:00;8.98;;;3.60;;
73474;SDS011;61711;52.266;10.542;2022-11-06T08:15:26;8.43;;;4.03;;
73474;SDS011;61711;52.266;10.542;2022-11-06T08:17:52;9.15;;;3.50;;
73474;SDS011;61711;52.266;10.542;2022-11-06T08:20:18;6.63;;;3.55;;
73474;SDS011;61711;52.266;10.542;2022-11-06T08:22:44;8.20;;;3.50;;
73474;SDS011;61711;52.266;10.542;2022-11-06T08:25:10;8.55;;;3.63;;
73474;SDS011;61711;52.266;10.542;2022-11-06T08:27:36;9.20;;;3.92;;
73474;SDS011;61711;52.266;10.542;2022-11-06T08:30:02;7.10;;;3.83;;
73474;SDS011;61711;52.266;10.542;2022-11-06T08:32:28;9.25;;;4.10;;
73474;SDS011;61711;52.266;10.542;2022-11-06T08:34:54;6.03;;;3.75;;
73474;SDS011;61711;52.266;10.542;2022-11-06T08:37:20;6.38;;;3.78;;
73474;SDS011;61711;52.266;10.542;2022-11-06T08:39:46;10.82;;;3.80;;
73474;SDS011;61711;52.266;10.542;2022-11-06T08:42:12;6.63;;;3.58;;
73474;SDS011;61711;52.266;10.542;2022-11-06T08:44:38;6.22;;;3.78;;
73474;SDS011;61711;52.266;10.542;2022-11-06T08:47:06;6.10;;;3.70;;
73474;SDS011;61711;52.266;10.542;2022-11-06T08:49:32;7.60;;;3.80;;
73474;SDS011;61711;52.266;10.542;2022-11-06T08:51:59;5.18;;;3.40;;
73474;SDS011;61711;52.266;10.542;2022-11-06T08:54:25;6.20;;;3.65;;
73474;SDS011;61711;52.266;10.542;2022-11-06T08:56:51;7.22;;;3.88;;
73474;SDS011;61711;52.266;10.542;2022-11-06T08:59:17;6.97;;;3.40;;
73474;SDS011;61711;52.266;10.542;2022-11-06T09:01:43;7.65;;;3.55;;
73474;SDS011;61711;52.266;10.542;2022-11-06T09:04:09;15.85;;;8.25;;
73474;SDS011;61711;52.266;10.542;2022-11-06T09:06:35;9.85;;;6.35;;
73474;SDS011;61711;52.266;10.542;2022-11-06T09:09:01;10.25;;;4.82;;
73474;SDS011;61711;52.266;10.542;2022-11-06T09:11:27;4.50;;;2.88;;
73474;SDS011;61711;52.266;10.542;2022-11-06T09:13:53;8.00;;;3.20;;
73474;SDS011;61711;52.266;10.542;2022-11-06T09:16:19;4.25;;;2.80;;
73474;SDS011;61711;52.266;10.542;2022-11-06T09:18:45;7.03;;;3.05;;
73474;SDS011;61711;52.266;10.542;2022-11-06T09:21:11;5.30;;;3.00;;
73474;SDS011;61711;52.266;10.542;2022-11-06T09:23:37;5.55;;;3.08;;
73474;SDS011;61711;52.266;10.542;2022-11-06T09:26:03;5.75;;;2.95;;
73474;SDS011;61711;52.266;10.542;2022-11-06T09:28:29;4.25;;;2.63;;
73474;SDS011;61711;52.266;10.542;2022-11-06T09:30:55;5.97;;;3.00;;
73474;SDS011;61711;52.266;10.542;2022-11-06T09:33:21;6.50;;;2.95;;
73474;SDS011;61711;52.266;10.542;2022-11-06T09:35:48;5.28;;;2.67;;
73474;SDS011;61711;52.266;10.542;2022-11-06T09:38:14;5.78;;;2.72;;
73474;SDS011;61711;52.266;10.542;2022-11-06T09:45:50;6.95;;;2.33;;
73474;SDS011;61711;52.266;10.542;2022-11-06T09:50:48;5.47;;;2.55;;
73474;SDS011;61711;52.266;10.542;2022-11-06T09:53:18;5.40;;;2.40;;
73474;SDS011;61711;52.266;10.542;2022-11-06T09:55:45;5.20;;;2.00;;
73474;SDS011;61711;52.266;10.542;2022-11-06T09:58:19;4.40;;;2.17;;
73474;SDS011;61711;52.266;10.542;2022-11-06T10:00:47;4.00;;;2.63;;
73474;SDS011;61711;52.266;10.542;2022-11-06T10:03:29;5.80;;;2.63;;
73474;SDS011;61711;52.266;10.542;2022-11-06T10:06:00;6.18;;;2.50;;
73474;SDS011;61711;52.266;10.542;2022-11-06T10:08:27;5.90;;;2.95;;
73474;SDS011;61711;52.266;10.542;2022-11-06T10:16:00;7.07;;;2.80;;
73474;SDS011;61711;52.266;10.542;2022-11-06T10:20:56;3.50;;;2.30;;
73474;SDS011;61711;52.266;10.542;2022-11-06T10:26:08;5.32;;;2.70;;
73474;SDS011;61711;52.266;10.542;2022-11-06T10:31:13;6.05;;;2.20;;
73474;SDS011;61711;52.266;10.542;2022-11-06T10:33:52;6.80;;;2.00;;
73474;SDS011;61711;52.266;10.542;2022-11-06T10:36:21;5.63;;;2.30;;
73474;SDS011;61711;52.266;10.542;2022-11-06T10:38:48;4.78;;;2.30;;
73474;SDS011;61711;52.266;10.542;2022-11-06T10:41:16;4.00;;;2.15;;
73474;SDS011;61711;52.266;10.542;2022-11-06T10:43:52;5.90;;;2.63;;
73474;SDS011;61711;52.266;10.542;2022-11-06T10:48:57;4.32;;;2.08;;
73474;SDS011;61711;52.266;10.542;2022-11-06T10:51:27;4.15;;;2.38;;
73474;SDS011;61711;52.266;10.542;2022-11-06T10:56:34;6.63;;;2.58;;
73474;SDS011;61711;52.266;10.542;2022-11-06T10:59:04;5.72;;;1.92;;
73474;SDS011;61711;52.266;10.542;2022-11-06T11:01:30;2.75;;;2.08;;
73474;SDS011;61711;52.266;10.542;2022-11-06T11:03:56;3.45;;;2.00;;
73474;SDS011;61711;52.266;10.542;2022-11-06T11:06:22;4.28;;;2.20;;
73474;SDS011;61711;52.266;10.542;2022-11-06T11:08:49;3.20;;;2.13;;
73474;SDS011;61711;52.266;10.542;2022-11-06T11:13:49;3.17;;;2.10;;
73474;SDS011;61711;52.266;10.542;2022-11-06T11:16:16;6.35;;;2.05;;
73474;SDS011;61711;52.266;10.542;2022-11-06T11:18:43;4.32;;;2.80;;
73474;SDS011;61711;52.266;10.542;2022-11-06T11:21:24;8.57;;;5.20;;
73474;SDS011;61711;52.266;10.542;2022-11-06T11:24:03;7.28;;;3.08;;
73474;SDS011;61711;52.266;10.542;2022-11-06T11:26:30;4.07;;;2.00;;
73474;SDS011;61711;52.266;10.542;2022-11-06T11:28:57;5.45;;;2.25;;
73474;SDS011;61711;52.266;10.542;2022-11-06T11:31:28;3.00;;;1.80;;
73474;SDS011;61711;52.266;10.542;2022-11-06T11:33:56;3.20;;;1.83;;
73474;SDS011;61711;52.266;10.542;2022-11-06T11:36:23;4.72;;;2.10;;
73474;SDS011;61711;52.266;10.542;2022-11-06T11:38:49;5.40;;;1.90;;
73474;SDS011;61711;52.266;10.542;2022-11-06T11:44:02;3.80;;;1.85;;
73474;SDS011;61711;52.266;10.542;2022-11-06T11:46:29;4.40;;;2.10;;
73474;SDS011;61711;52.266;10.542;2022-11-06T11:48:56;2.47;;;1.60;;
73474;SDS011;61711;52.266;10.542;2022-11-06T11:59:18;3.03;;;1.80;;
73474;SDS011;61711;52.266;10.542;2022-11-06T12:01:45;4.22;;;1.80;;
73474;SDS011;61711;52.266;10.542;2022-11-06T12:04:28;4.43;;;1.77;;
73474;SDS011;61711;52.266;10.542;2022-11-06T12:06:57;3.72;;;1.90;;
73474;SDS011;61711;52.266;10.542;2022-11-06T12:09:23;3.63;;;2.25;;
73474;SDS011;61711;52.266;10.542;2022-11-06T12:11:50;3.33;;;1.90;;
73474;SDS011;61711;52.266;10.542;2022-11-06T12:16:50;5.97;;;1.90;;
73474;SDS011;61711;52.266;10.542;2022-11-06T12:19:17;3.22;;;1.60;;
73474;SDS011;61711;52.266;10.542;2022-11-06T12:21:45;2.00;;;1.75;;
73474;SDS011;61711;52.266;10.542;2022-11-06T12:34:06;3.10;;;1.65;;
73474;SDS011;61711;52.266;10.542;2022-11-06T12:36:34;4.38;;;1.90;;
73474;SDS011;61711;52.266;10.542;2022-11-06T12:39:09;2.83;;;1.35;;
73474;SDS011;61711;52.266;10.542;2022-11-06T12:41:38;2.97;;;1.80;;
73474;SDS011;61711;52.266;10.542;2022-11-06T12:44:08;2.47;;;1.58;;
73474;SDS011;61711;52.266;10.542;2022-11-06T12:46:48;3.03;;;1.67;;
73474;SDS011;61711;52.266;10.542;2022-11-06T12:51:50;5.25;;;1.42;;
73474;SDS011;61711;52.266;10.542;2022-11-06T12:54:42;2.65;;;1.58;;
73474;SDS011;61711;52.266;10.542;2022-11-06T12:57:33;3.47;;;1.58;;
73474;SDS011;61711;52.266;10.542;2022-11-06T13:00:15;3.00;;;1.40;;
73474;SDS011;61711;52.266;10.542;2022-11-06T13:05:28;2.80;;;1.40;;
73474;SDS011;61711;52.266;10.542;2022-11-06T13:18:23;4.43;;;1.70;;
73474;SDS011;61711;52.266;10.542;2022-11-06T13:20:56;2.90;;;1.73;;
73474;SDS011;61711;52.266;10.542;2022-11-06T13:23:47;4.88;;;1.55;;
73474;SDS011;61711;52.266;10.542;2022-11-06T13:26:32;3.70;;;1.52;;
73474;SDS011;61711;52.266;10.542;2022-11-06T13:29:01;4.95;;;1.80;;
73474;SDS011;61711;52.266;10.542;2022-11-06T13:31:29;2.67;;;1.50;;
73474;SDS011;61711;52.266;10.542;2022-11-06T13:33:58;2.53;;;1.27;;
73474;SDS011;61711;52.266;10.542;2022-11-06T13:36:27;3.13;;;1.50;;
73474;SDS011;61711;52.266;10.542;2022-11-06T13:38:54;2.63;;;1.45;;
73474;SDS011;61711;52.266;10.542;2022-11-06T13:41:21;4.35;;;1.70;;
73474;SDS011;61711;52.266;10.542;2022-11-06T13:43:52;4.35;;;1.55;;
73474;SDS011;61711;52.266;10.542;2022-11-06T13:46:24;4.68;;;1.77;;
73474;SDS011;61711;52.266;10.542;2022-11-06T13:54:02;3.05;;;1.60;;
73474;SDS011;61711;52.266;10.542;2022-11-06T14:02:00;4.65;;;1.65;;
73474;SDS011;61711;52.266;10.542;2022-11-06T14:06:58;4.32;;;1.60;;
73474;SDS011;61711;52.266;10.542;2022-11-06T14:09:25;2.42;;;1.60;;
73474;SDS011;61711;52.266;10.542;2022-11-06T14:11:53;2.70;;;1.50;;
73474;SDS011;61711;52.266;10.542;2022-11-06T14:16:47;3.50;;;1.55;;
73474;SDS011;61711;52.266;10.542;2022-11-06T14:19:31;2.22;;;1.30;;
73474;SDS011;61711;52.266;10.542;2022-11-06T14:22:42;7.00;;;1.80;;
73474;SDS011;61711;52.266;10.542;2022-11-06T14:24:44;3.97;;;1.50;;
73474;SDS011;61711;52.266;10.542;2022-11-06T14:32:11;4.47;;;2.53;;
73474;SDS011;61711;52.266;10.542;2022-11-06T14:34:57;3.15;;;1.40;;
73474;SDS011;61711;52.266;10.542;2022-11-06T14:40:10;5.30;;;2.47;;
73474;SDS011;61711;52.266;10.542;2022-11-06T14:42:44;3.90;;;1.70;;
73474;SDS011;61711;52.266;10.542;2022-11-06T14:45:14;5.78;;;1.80;;
73474;SDS011;61711;52.266;10.542;2022-11-06T14:47:48;2.35;;;1.67;;
73474;SDS011;61711;52.266;10.542;2022-11-06T14:53:20;3.15;;;1.90;;
73474;SDS011;61711;52.266;10.542;2022-11-06T14:56:01;11.40;;;2.67;;
73474;SDS011;61711;52.266;10.542;2022-11-06T14:58:29;3.58;;;1.73;;
73474;SDS011;61711;52.266;10.542;2022-11-06T15:00:58;4.00;;;2.15;;
73474;SDS011;61711;52.266;10.542;2022-11-06T15:16:42;5.30;;;2.55;;
73474;SDS011;61711;52.266;10.542;2022-11-06T15:19:16;6.43;;;2.53;;
73474;SDS011;61711;52.266;10.542;2022-11-06T15:24:25;5.47;;;2.60;;
73474;SDS011;61711;52.266;10.542;2022-11-06T15:26:53;4.13;;;2.38;;
73474;SDS011;61711;52.266;10.542;2022-11-06T15:29:25;5.28;;;2.50;;
73474;SDS011;61711;52.266;10.542;2022-11-06T15:32:03;5.40;;;2.30;;
73474;SDS011;61711;52.266;10.542;2022-11-06T15:34:32;4.90;;;2.38;;
73474;SDS011;61711;52.266;10.542;2022-11-06T15:37:06;6.13;;;2.28;;
73474;SDS011;61711;52.266;10.542;2022-11-06T15:39:53;3.85;;;2.25;;
73474;SDS011;61711;52.266;10.542;2022-11-06T15:42:19;6.15;;;2.80;;
73474;SDS011;61711;52.266;10.542;2022-11-06T15:44:47;5.90;;;3.05;;
73474;SDS011;61711;52.266;10.542;2022-11-06T15:47:20;6.22;;;2.50;;
73474;SDS011;61711;52.266;10.542;2022-11-06T15:52:16;7.47;;;2.97;;
73474;SDS011;61711;52.266;10.542;2022-11-06T15:54:42;6.70;;;2.95;;
73474;SDS011;61711;52.266;10.542;2022-11-06T15:59:44;6.50;;;2.92;;
73474;SDS011;61711;52.266;10.542;2022-11-06T16:02:14;7.15;;;2.85;;
73474;SDS011;61711;52.266;10.542;2022-11-06T16:04:41;6.70;;;2.47;;
73474;SDS011;61711;52.266;10.542;2022-11-06T16:07:07;4.10;;;2.90;;
73474;SDS011;61711;52.266;10.542;2022-11-06T16:09:33;5.15;;;2.67;;
73474;SDS011;61711;52.266;10.542;2022-11-06T16:11:59;4.35;;;2.50;;
73474;SDS011;61711;52.266;10.542;2022-11-06T16:14:26;7.10;;;3.00;;
73474;SDS011;61711;52.266;10.542;2022-11-06T16:16:53;4.15;;;2.67;;
73474;SDS011;61711;52.266;10.542;2022-11-06T16:19:29;8.05;;;4.78;;
73474;SDS011;61711;52.266;10.542;2022-11-06T16:21:57;13.65;;;9.07;;
73474;SDS011;61711;52.266;10.542;2022-11-06T16:24:25;6.07;;;3.60;;
73474;SDS011;61711;52.266;10.542;2022-11-06T16:26:53;4.35;;;2.70;;
73474;SDS011;61711;52.266;10.542;2022-11-06T16:29:21;6.43;;;2.60;;
73474;SDS011;61711;52.266;10.542;2022-11-06T16:31:47;3.35;;;2.45;;
73474;SDS011;61711;52.266;10.542;2022-11-06T16:34:20;4.63;;;2.65;;
73474;SDS011;61711;52.266;10.542;2022-11-06T16:36:58;4.95;;;2.78;;
73474;SDS011;61711;52.266;10.542;2022-11-06T16:44:27;6.18;;;2.88;;
73474;SDS011;61711;52.266;10.542;2022-11-06T16:49:38;5.88;;;3.35;;
73474;SDS011;61711;52.266;10.542;2022-11-06T16:52:18;7.78;;;3.58;;
73474;SDS011;61711;52.266;10.542;2022-11-06T16:54:52;6.75;;;3.35;;
73474;SDS011;61711;52.266;10.542;2022-11-06T16:57:19;5.65;;;3.42;;
73474;SDS011;61711;52.266;10.542;2022-11-06T16:59:53;4.70;;;3.35;;
73474;SDS011;61711;52.266;10.542;2022-11-06T17:04:46;6.43;;;3.22;;
73474;SDS011;61711;52.266;10.542;2022-11-06T17:07:21;5.32;;;3.40;;
73474;SDS011;61711;52.266;10.542;2022-11-06T17:09:47;8.70;;;3.33;;
73474;SDS011;61711;52.266;10.542;2022-11-06T17:12:13;11.75;;;3.75;;
73474;SDS011;61711;52.266;10.542;2022-11-06T17:14:42;7.22;;;4.00;;
73474;SDS011;61711;52.266;10.542;2022-11-06T17:17:22;4.95;;;3.50;;
73474;SDS011;61711;52.266;10.542;2022-11-06T17:19:49;6.75;;;3.75;;
73474;SDS011;61711;52.266;10.542;2022-11-06T17:22:16;3.97;;;3.03;;
73474;SDS011;61711;52.266;10.542;2022-11-06T17:24:42;4.70;;;3.20;;
73474;SDS011;61711;52.266;10.542;2022-11-06T17:27:08;5.95;;;3.75;;
73474;SDS011;61711;52.266;10.542;2022-11-06T17:29:34;6.70;;;3.60;;